createdAt,value
2023-01-29T00:00:30.712Z,50.80
2023-01-29T00:01:30.724Z,53.60
2023-01-29T00:02:30.813Z,52.40
2023-01-29T00:03:30.692Z,55.10
2023-01-29T00:04:31.689Z,52.30
2023-01-29T00:05:31.677Z,54.50
2023-01-29T00:06:30.754Z,51.60
2023-01-29T00:07:30.667Z,56.60
2023-01-29T00:08:30.680Z,52.90
2023-01-29T00:09:30.672Z,53.30
2023-01-29T00:10:30.667Z,51.20
2023-01-29T00:11:30.768Z,51.40
2023-01-29T00:12:30.668Z,49.70
2023-01-29T00:13:30.630Z,55.40
2023-01-29T00:14:30.636Z,52.30
2023-01-29T00:15:30.618Z,52.80
2023-01-29T00:16:30.616Z,51.80
2023-01-29T00:17:30.602Z,55.60
2023-01-29T00:18:30.604Z,50.30
2023-01-29T00:19:30.594Z,54.50
2023-01-29T00:20:31.134Z,53.80
2023-01-29T00:21:31.165Z,54.60
2023-01-29T00:22:30.574Z,55.40
2023-01-29T00:23:30.583Z,54.70
2023-01-29T00:24:30.617Z,57.20
2023-01-29T00:25:30.564Z,54.90
2023-01-29T00:26:30.548Z,59.00
2023-01-29T00:27:30.543Z,55.30
2023-01-29T00:28:30.533Z,58.10
2023-01-29T00:29:30.529Z,56.50
2023-01-29T00:30:30.531Z,56.20
2023-01-29T00:31:30.616Z,52.20
2023-01-29T00:32:30.515Z,55.20
2023-01-29T00:33:30.500Z,56.40
2023-01-29T00:34:30.503Z,56.70
2023-01-29T00:35:30.522Z,56.60
2023-01-29T00:36:30.489Z,53.20
2023-01-29T00:37:30.632Z,55.50
2023-01-29T00:38:30.477Z,55.20
2023-01-29T00:39:46.030Z,56.40
2023-01-29T00:40:30.657Z,55.80
2023-01-29T00:41:30.447Z,59.90
2023-01-29T00:42:30.455Z,55.20
2023-01-29T00:43:30.441Z,54.30
2023-01-29T00:44:30.446Z,53.60
2023-01-29T00:45:30.435Z,55.40
2023-01-29T00:46:30.472Z,53.30
2023-01-29T00:47:30.433Z,54.40
2023-01-29T00:48:30.419Z,54.30
2023-01-29T00:49:30.462Z,52.20
2023-01-29T00:50:30.423Z,55.30
2023-01-29T00:51:30.415Z,53.20
2023-01-29T00:52:30.408Z,55.10
2023-01-29T00:53:30.375Z,51.40
2023-01-29T00:54:32.383Z,57.00
2023-01-29T00:55:30.420Z,58.80
2023-01-29T00:56:30.373Z,54.80
2023-01-29T00:57:30.367Z,60.00
2023-01-29T00:58:30.351Z,51.50
2023-01-29T00:59:30.357Z,54.90
2023-01-29T01:00:30.460Z,53.30
2023-01-29T01:01:30.334Z,55.70
2023-01-29T01:02:30.333Z,52.80
2023-01-29T01:03:30.319Z,53.40
2023-01-29T01:04:30.321Z,54.80
2023-01-29T01:05:30.413Z,54.30
2023-01-29T01:06:30.312Z,55.30
2023-01-29T01:07:30.307Z,55.20
2023-01-29T01:08:30.323Z,51.40
2023-01-29T01:09:30.287Z,58.40
2023-01-29T01:10:30.303Z,50.80
2023-01-29T01:11:30.277Z,50.10
2023-01-29T01:12:30.368Z,51.70
2023-01-29T01:13:30.255Z,52.90
2023-01-29T01:14:30.264Z,52.70
2023-01-29T01:15:30.265Z,50.10
2023-01-29T01:16:30.289Z,50.30
2023-01-29T01:17:30.239Z,52.10
2023-01-29T01:18:30.245Z,52.80
2023-01-29T01:19:30.232Z,47.60
2023-01-29T01:20:30.375Z,52.20
2023-01-29T01:21:30.231Z,48.50
2023-01-29T01:22:30.245Z,50.60
2023-01-29T01:23:30.218Z,50.50
2023-01-29T01:24:30.332Z,46.10
2023-01-29T01:25:30.202Z,52.40
2023-01-29T01:26:30.186Z,52.70
2023-01-29T01:27:30.191Z,48.70
2023-01-29T01:28:30.171Z,49.40
2023-01-29T01:29:30.164Z,50.70
2023-01-29T01:30:30.201Z,47.50
2023-01-29T01:31:30.195Z,52.00
2023-01-29T01:32:30.146Z,52.40
2023-01-29T01:33:30.140Z,48.00
2023-01-29T01:34:30.141Z,50.80
2023-01-29T01:35:30.150Z,54.60
2023-01-29T01:36:30.131Z,56.60
2023-01-29T01:37:30.131Z,48.70
2023-01-29T01:38:30.148Z,51.10
2023-01-29T01:39:30.116Z,52.60
2023-01-29T01:40:30.117Z,50.50
2023-01-29T01:41:30.086Z,52.70
2023-01-29T01:42:30.091Z,50.40
2023-01-29T01:43:30.171Z,50.70
2023-01-29T01:44:30.077Z,55.00
2023-01-29T01:45:30.174Z,50.70
2023-01-29T01:46:30.066Z,53.60
2023-01-29T01:47:30.069Z,49.40
2023-01-29T01:48:30.053Z,47.60
2023-01-29T01:49:30.053Z,53.70
2023-01-29T01:50:30.064Z,52.90
2023-01-29T01:51:30.033Z,52.60
2023-01-29T01:52:30.033Z,54.50
2023-01-29T01:53:30.012Z,55.20
2023-01-29T01:54:30.063Z,55.30
2023-01-29T01:55:30.048Z,55.30
2023-01-29T01:56:30.022Z,60.70
2023-01-29T01:57:30.692Z,54.30
2023-01-29T01:58:30.959Z,57.70
2023-01-29T01:59:30.080Z,55.10
2023-01-29T02:00:30.088Z,55.00
2023-01-29T02:01:30.116Z,56.90
2023-01-29T02:02:30.109Z,54.20
2023-01-29T02:03:30.155Z,57.20
2023-01-29T02:04:30.186Z,54.70
2023-01-29T02:05:30.200Z,51.60
2023-01-29T02:06:30.340Z,52.70
2023-01-29T02:07:30.336Z,58.80
2023-01-29T02:08:30.353Z,55.50
2023-01-29T02:09:30.148Z,52.90
2023-01-29T02:10:29.968Z,55.50
2023-01-29T02:11:30.581Z,54.20
2023-01-29T02:12:30.575Z,57.20
2023-01-29T02:13:30.245Z,52.10
2023-01-29T02:14:30.670Z,51.70
2023-01-29T02:15:30.394Z,51.20
2023-01-29T02:16:30.844Z,50.40
2023-01-29T02:17:30.844Z,51.00
2023-01-29T02:18:30.855Z,52.60
2023-01-29T02:19:29.879Z,53.30
2023-01-29T02:20:29.888Z,50.10
2023-01-29T02:21:29.893Z,49.50
2023-01-29T02:22:29.872Z,50.20
2023-01-29T02:23:29.872Z,51.80
2023-01-29T02:24:30.098Z,54.20
2023-01-29T02:25:30.680Z,52.70
2023-01-29T02:26:30.135Z,50.50
2023-01-29T02:27:29.831Z,51.40
2023-01-29T02:28:30.651Z,50.40
2023-01-29T02:29:30.817Z,54.30
2023-01-29T02:30:29.832Z,55.20
2023-01-29T02:31:30.728Z,53.60
2023-01-29T02:32:30.740Z,54.30
2023-01-29T02:33:29.789Z,52.30
2023-01-29T02:34:29.788Z,51.20
2023-01-29T02:35:29.839Z,55.60
2023-01-29T02:36:29.788Z,54.30
2023-01-29T02:37:29.787Z,54.20
2023-01-29T02:38:29.936Z,53.00
2023-01-29T02:39:29.955Z,53.40
2023-01-29T02:40:29.956Z,54.10
2023-01-29T02:41:29.755Z,47.60
2023-01-29T02:42:30.028Z,52.40
2023-01-29T02:43:30.174Z,56.00
2023-01-29T02:44:29.851Z,51.90
2023-01-29T02:45:30.193Z,55.60
2023-01-29T02:46:30.202Z,54.80
2023-01-29T02:47:30.265Z,52.90
2023-01-29T02:48:30.014Z,53.00
2023-01-29T02:49:29.819Z,56.50
2023-01-29T02:50:29.832Z,54.70
2023-01-29T02:51:30.451Z,56.40
2023-01-29T02:52:29.851Z,52.70
2023-01-29T02:53:29.683Z,54.00
2023-01-29T02:54:29.668Z,54.80
2023-01-29T02:55:30.111Z,52.80
2023-01-29T02:56:30.088Z,51.40
2023-01-29T02:57:30.107Z,51.20
2023-01-29T02:58:30.094Z,52.90
2023-01-29T02:59:30.127Z,54.00
2023-01-29T03:00:30.145Z,52.00
2023-01-29T03:01:29.759Z,52.60
2023-01-29T03:02:30.013Z,55.20
2023-01-29T03:03:30.139Z,52.90
2023-01-29T03:04:30.127Z,56.00
2023-01-29T03:05:29.803Z,49.70
2023-01-29T03:06:29.598Z,53.10
2023-01-29T03:07:29.577Z,55.00
2023-01-29T03:08:30.606Z,52.90
2023-01-29T03:09:30.176Z,54.50
2023-01-29T03:10:29.755Z,51.30
2023-01-29T03:11:29.605Z,48.70
2023-01-29T03:12:29.569Z,54.20
2023-01-29T03:13:29.568Z,51.30
2023-01-29T03:14:29.574Z,54.20
2023-01-29T03:15:29.631Z,52.80
2023-01-29T03:16:29.542Z,54.80
2023-01-29T03:17:29.818Z,55.90
2023-01-29T03:18:29.814Z,52.50
2023-01-29T03:19:29.502Z,54.20
2023-01-29T03:20:29.542Z,53.70
2023-01-29T03:21:29.494Z,54.20
2023-01-29T03:22:29.841Z,57.50
2023-01-29T03:23:30.050Z,53.10
2023-01-29T03:24:29.490Z,57.10
2023-01-29T03:25:29.477Z,54.00
2023-01-29T03:26:29.605Z,51.80
2023-01-29T03:27:29.470Z,56.60
2023-01-29T03:28:29.609Z,53.60
2023-01-29T03:29:29.437Z,55.40
2023-01-29T03:30:29.431Z,57.20
2023-01-29T03:31:29.573Z,54.50
2023-01-29T03:32:29.429Z,56.20
2023-01-29T03:33:29.516Z,55.10
2023-01-29T03:34:29.407Z,56.20
2023-01-29T03:35:29.396Z,54.10
2023-01-29T03:36:29.417Z,55.70
2023-01-29T03:37:29.389Z,56.80
2023-01-29T03:38:29.385Z,56.80
2023-01-29T03:39:29.410Z,55.10
2023-01-29T03:40:29.364Z,57.00
2023-01-29T03:41:29.391Z,54.00
2023-01-29T03:42:29.364Z,55.70
2023-01-29T03:43:29.572Z,56.00
2023-01-29T03:44:29.353Z,56.80
2023-01-29T03:45:29.419Z,53.50
2023-01-29T03:46:29.359Z,53.20
2023-01-29T03:47:29.603Z,53.10
2023-01-29T03:48:29.325Z,50.50
2023-01-29T03:49:29.312Z,53.30
2023-01-29T03:50:29.311Z,51.90
2023-01-29T03:51:29.370Z,53.50
2023-01-29T03:52:29.299Z,53.10
2023-01-29T03:53:29.307Z,53.00
2023-01-29T03:54:29.692Z,56.60
2023-01-29T03:55:29.299Z,54.50
2023-01-29T03:56:29.289Z,55.20
2023-01-29T03:57:29.274Z,55.70
2023-01-29T03:58:29.290Z,53.70
2023-01-29T03:59:29.267Z,59.20
2023-01-29T04:00:29.809Z,58.20
2023-01-29T04:01:29.307Z,55.90
2023-01-29T04:02:29.247Z,59.00
2023-01-29T04:03:29.255Z,57.20
2023-01-29T04:04:29.355Z,59.10
2023-01-29T04:05:29.225Z,56.50
2023-01-29T04:06:29.225Z,55.80
2023-01-29T04:07:29.212Z,60.60
2023-01-29T04:08:29.200Z,54.10
2023-01-29T04:09:29.202Z,59.70
2023-01-29T04:10:29.186Z,57.00
2023-01-29T04:11:29.413Z,59.90
2023-01-29T04:12:29.182Z,58.00
2023-01-29T04:13:29.191Z,60.60
2023-01-29T04:14:29.184Z,58.90
2023-01-29T04:15:29.160Z,60.70
2023-01-29T04:16:29.718Z,57.60
2023-01-29T04:17:29.149Z,60.20
2023-01-29T04:18:29.142Z,61.40
2023-01-29T04:19:29.132Z,60.00
2023-01-29T04:20:29.203Z,60.30
2023-01-29T04:21:29.133Z,55.10
2023-01-29T04:22:29.131Z,56.30
2023-01-29T04:23:29.130Z,55.20
2023-01-29T04:24:29.913Z,53.70
2023-01-29T04:25:29.169Z,55.10
2023-01-29T04:26:29.119Z,51.90
2023-01-29T04:27:29.086Z,52.20
2023-01-29T04:28:29.093Z,54.90
2023-01-29T04:29:30.130Z,54.50
2023-01-29T04:30:29.078Z,51.90
2023-01-29T04:31:29.248Z,56.60
2023-01-29T04:32:29.076Z,54.00
2023-01-29T04:33:29.069Z,51.10
2023-01-29T04:34:29.044Z,54.40
2023-01-29T04:35:29.098Z,55.40
2023-01-29T04:36:29.066Z,53.00
2023-01-29T04:37:29.116Z,49.40
2023-01-29T04:38:29.838Z,51.90
2023-01-29T04:39:29.181Z,48.60
2023-01-29T04:40:29.014Z,53.00
2023-01-29T04:41:29.015Z,49.00
2023-01-29T04:42:29.001Z,53.10
2023-01-29T04:43:28.985Z,50.80
2023-01-29T04:44:28.979Z,48.90
2023-01-29T04:45:28.990Z,53.10
2023-01-29T04:46:28.989Z,50.30
2023-01-29T04:47:28.995Z,50.50
2023-01-29T04:48:28.963Z,52.90
2023-01-29T04:49:28.949Z,48.60
2023-01-29T04:50:28.980Z,50.70
2023-01-29T04:51:28.957Z,50.30
2023-01-29T04:52:28.937Z,51.20
2023-01-29T04:53:28.942Z,47.40
2023-01-29T04:54:28.928Z,51.50
2023-01-29T04:55:29.023Z,48.90
2023-01-29T04:56:28.917Z,53.20
2023-01-29T04:57:28.917Z,46.80
2023-01-29T04:58:28.897Z,54.80
2023-01-29T04:59:28.893Z,47.60
2023-01-29T05:00:29.088Z,49.50
2023-01-29T05:01:28.911Z,48.20
2023-01-29T05:02:28.885Z,50.70
2023-01-29T05:03:28.877Z,48.70
2023-01-29T05:04:28.864Z,53.80
2023-01-29T05:05:28.848Z,48.50
2023-01-29T05:06:28.948Z,55.70
2023-01-29T05:07:28.881Z,50.20
2023-01-29T05:08:28.841Z,50.20
2023-01-29T05:09:28.823Z,51.70
2023-01-29T05:10:28.835Z,49.00
2023-01-29T05:11:28.831Z,50.30
2023-01-29T05:12:28.809Z,45.70
2023-01-29T05:13:28.804Z,45.50
2023-01-29T05:14:28.799Z,48.10
2023-01-29T05:15:28.790Z,49.10
2023-01-29T05:16:28.846Z,48.70
2023-01-29T05:17:28.899Z,50.70
2023-01-29T05:18:29.238Z,46.30
2023-01-29T05:19:29.441Z,49.20
2023-01-29T05:20:28.755Z,48.00
2023-01-29T05:21:28.766Z,48.10
2023-01-29T05:22:28.745Z,45.90
2023-01-29T05:23:28.737Z,47.40
2023-01-29T05:24:28.767Z,47.50
2023-01-29T05:25:28.776Z,47.50
2023-01-29T05:26:28.738Z,47.90
2023-01-29T05:27:28.750Z,48.20
2023-01-29T05:28:28.708Z,45.50
2023-01-29T05:29:28.695Z,47.80
2023-01-29T05:30:28.695Z,48.90
2023-01-29T05:31:28.811Z,47.70
2023-01-29T05:32:28.682Z,45.70
2023-01-29T05:33:28.680Z,49.20
2023-01-29T05:34:28.670Z,45.70
2023-01-29T05:35:28.669Z,48.40
2023-01-29T05:36:28.726Z,49.40
2023-01-29T05:37:28.755Z,49.00
2023-01-29T05:38:28.832Z,52.10
2023-01-29T05:39:28.647Z,48.50
2023-01-29T05:40:28.681Z,48.80
2023-01-29T05:41:28.702Z,50.50
2023-01-29T05:42:28.762Z,47.60
2023-01-29T05:43:28.897Z,48.60
2023-01-29T05:44:28.723Z,46.50
2023-01-29T05:45:28.610Z,46.40
2023-01-29T05:46:28.652Z,49.80
2023-01-29T05:47:29.018Z,47.50
2023-01-29T05:48:29.097Z,45.70
2023-01-29T05:49:28.877Z,51.20
2023-01-29T05:50:29.019Z,52.70
2023-01-29T05:51:28.628Z,47.80
2023-01-29T05:52:28.560Z,52.70
2023-01-29T05:53:28.549Z,48.20
2023-01-29T05:54:29.083Z,50.30
2023-01-29T05:55:28.710Z,51.30
2023-01-29T05:56:28.569Z,50.60
2023-01-29T05:57:29.138Z,48.90
2023-01-29T05:58:28.525Z,50.70
2023-01-29T05:59:28.507Z,49.10
2023-01-29T06:00:29.088Z,50.00
2023-01-29T06:01:29.142Z,50.90
2023-01-29T06:02:28.889Z,51.30
2023-01-29T06:03:28.485Z,50.30
2023-01-29T06:04:28.493Z,53.00
2023-01-29T06:05:28.475Z,50.10
2023-01-29T06:06:28.522Z,49.40
2023-01-29T06:07:28.592Z,49.80
2023-01-29T06:08:28.523Z,49.50
2023-01-29T06:09:28.511Z,48.90
2023-01-29T06:10:28.743Z,50.00
2023-01-29T06:11:28.750Z,48.60
2023-01-29T06:12:28.440Z,46.90
2023-01-29T06:13:28.769Z,49.70
2023-01-29T06:14:28.562Z,51.50
2023-01-29T06:15:28.420Z,47.60
2023-01-29T06:16:28.623Z,49.80
2023-01-29T06:17:28.444Z,48.30
2023-01-29T06:18:28.410Z,53.40
2023-01-29T06:19:28.423Z,52.70
2023-01-29T06:20:29.858Z,50.90
2023-01-29T06:21:28.817Z,53.20
2023-01-29T06:22:28.837Z,49.50
2023-01-29T06:23:28.828Z,49.20
2023-01-29T06:24:28.494Z,52.70
2023-01-29T06:25:28.387Z,51.70
2023-01-29T06:26:28.872Z,48.30
2023-01-29T06:27:28.521Z,50.10
2023-01-29T06:28:29.075Z,55.30
2023-01-29T06:29:28.667Z,53.40
2023-01-29T06:30:29.097Z,52.60
2023-01-29T06:31:38.170Z,52.00
2023-01-29T06:32:28.897Z,54.00
2023-01-29T06:33:29.472Z,50.00
2023-01-29T06:34:28.356Z,51.40
2023-01-29T06:35:28.305Z,52.00
2023-01-29T06:36:28.325Z,51.00
2023-01-29T06:37:29.273Z,52.90
2023-01-29T06:38:29.136Z,54.60
2023-01-29T06:39:28.932Z,49.70
2023-01-29T06:40:28.953Z,51.80
2023-01-29T06:41:28.273Z,52.30
2023-01-29T06:42:28.294Z,53.20
2023-01-29T06:43:28.544Z,51.70
2023-01-29T06:44:28.761Z,50.00
2023-01-29T06:45:28.403Z,53.10
2023-01-29T06:46:28.792Z,53.30
2023-01-29T06:47:28.809Z,51.20
2023-01-29T06:48:28.410Z,52.50
2023-01-29T06:49:28.268Z,51.00
2023-01-29T06:50:28.253Z,54.50
2023-01-29T06:51:28.250Z,52.60
2023-01-29T06:52:28.260Z,52.60
2023-01-29T06:53:28.227Z,50.00
2023-01-29T06:54:28.450Z,50.50
2023-01-29T06:55:28.489Z,54.10
2023-01-29T06:56:28.482Z,51.90
2023-01-29T06:57:28.451Z,48.30
2023-01-29T06:58:28.476Z,50.50
2023-01-29T06:59:28.666Z,51.80
2023-01-29T07:00:30.623Z,51.20
2023-01-29T07:01:36.236Z,53.70
2023-01-29T07:02:28.761Z,53.60
2023-01-29T07:03:28.505Z,52.20
2023-01-29T07:04:28.153Z,51.70
2023-01-29T07:05:28.901Z,50.30
2023-01-29T07:06:28.142Z,48.40
2023-01-29T07:07:28.303Z,48.90
2023-01-29T07:08:28.147Z,53.50
2023-01-29T07:09:28.392Z,47.50
2023-01-29T07:10:28.540Z,52.20
2023-01-29T07:11:28.737Z,48.20
2023-01-29T07:12:28.143Z,50.70
2023-01-29T07:13:28.087Z,49.10
2023-01-29T07:14:28.784Z,50.60
2023-01-29T07:15:28.390Z,50.40
2023-01-29T07:16:28.322Z,51.80
2023-01-29T07:17:28.570Z,55.50
2023-01-29T07:18:28.376Z,50.70
2023-01-29T07:19:28.031Z,51.00
2023-01-29T07:20:28.191Z,49.50
2023-01-29T07:21:28.428Z,51.70
2023-01-29T07:22:28.041Z,50.30
2023-01-29T07:23:28.448Z,54.70
2023-01-29T07:24:28.878Z,49.60
2023-01-29T07:25:28.013Z,53.60
2023-01-29T07:26:28.846Z,49.70
2023-01-29T07:27:28.027Z,51.00
2023-01-29T07:28:28.037Z,50.80
2023-01-29T07:29:28.050Z,54.50
2023-01-29T07:30:28.143Z,52.60
2023-01-29T07:31:28.130Z,50.60
2023-01-29T07:32:28.264Z,55.00
2023-01-29T07:33:27.947Z,53.10
2023-01-29T07:34:28.085Z,53.60
2023-01-29T07:35:28.083Z,52.20
2023-01-29T07:36:27.952Z,55.70
2023-01-29T07:37:28.091Z,53.10
2023-01-29T07:38:28.332Z,55.00
2023-01-29T07:39:27.918Z,53.20
2023-01-29T07:40:28.196Z,53.30
2023-01-29T07:41:27.912Z,54.70
2023-01-29T07:42:27.972Z,50.10
2023-01-29T07:43:27.967Z,52.00
2023-01-29T07:44:27.972Z,50.70
2023-01-29T07:45:28.610Z,50.80
2023-01-29T07:46:28.570Z,50.40
2023-01-29T07:47:27.988Z,50.50
2023-01-29T07:48:27.863Z,54.90
2023-01-29T07:49:27.885Z,54.20
2023-01-29T07:50:27.895Z,55.30
2023-01-29T07:51:27.893Z,53.50
2023-01-29T07:52:27.897Z,51.90
2023-01-29T07:53:27.912Z,50.20
2023-01-29T07:54:27.918Z,52.80
2023-01-29T07:55:27.939Z,51.60
2023-01-29T07:56:27.830Z,54.40
2023-01-29T07:57:27.963Z,53.00
2023-01-29T07:58:27.985Z,54.40
2023-01-29T07:59:27.986Z,51.20
2023-01-29T08:00:28.038Z,49.90
2023-01-29T08:01:27.779Z,55.30
2023-01-29T08:02:28.089Z,52.00
2023-01-29T08:03:28.047Z,51.60
2023-01-29T08:04:27.733Z,51.90
2023-01-29T08:05:27.764Z,51.50
2023-01-29T08:06:27.734Z,50.80
2023-01-29T08:07:27.884Z,53.40
2023-01-29T08:08:27.712Z,50.90
2023-01-29T08:09:27.704Z,53.40
2023-01-29T08:10:27.778Z,52.00
2023-01-29T08:11:27.720Z,48.00
2023-01-29T08:12:27.731Z,51.10
2023-01-29T08:13:27.688Z,51.50
2023-01-29T08:14:27.670Z,54.30
2023-01-29T08:15:27.820Z,57.40
2023-01-29T08:16:27.785Z,52.40
2023-01-29T08:17:27.683Z,53.50
2023-01-29T08:18:27.803Z,52.70
2023-01-29T08:19:27.809Z,52.10
2023-01-29T08:20:27.684Z,52.40
2023-01-29T08:21:27.646Z,50.70
2023-01-29T08:22:27.630Z,51.90
2023-01-29T08:23:27.633Z,53.70
2023-01-29T08:24:36.058Z,50.40
2023-01-29T08:25:28.007Z,51.00
2023-01-29T08:26:27.653Z,48.50
2023-01-29T08:27:27.843Z,54.10
2023-01-29T08:28:27.831Z,54.10
2023-01-29T08:29:27.617Z,53.30
2023-01-29T08:30:27.592Z,52.60
2023-01-29T08:31:27.913Z,49.90
2023-01-29T08:32:27.625Z,51.90
2023-01-29T08:33:38.959Z,53.60
2023-01-29T08:34:27.644Z,51.00
2023-01-29T08:35:27.854Z,53.70
2023-01-29T08:36:27.865Z,52.00
2023-01-29T08:37:27.739Z,50.90
2023-01-29T08:38:27.872Z,54.30
2023-01-29T08:39:27.604Z,52.60
2023-01-29T08:40:27.637Z,49.10
2023-01-29T08:41:27.524Z,54.40
2023-01-29T08:42:27.752Z,49.90
2023-01-29T08:43:27.701Z,52.20
2023-01-29T08:44:27.481Z,50.70
2023-01-29T08:45:27.785Z,52.10
2023-01-29T08:46:27.802Z,50.10
2023-01-29T08:47:29.410Z,49.80
2023-01-29T08:48:27.460Z,47.30
2023-01-29T08:49:27.561Z,49.30
2023-01-29T08:50:28.491Z,49.80
2023-01-29T08:51:27.591Z,48.30
2023-01-29T08:52:27.978Z,46.10
2023-01-29T08:53:28.038Z,46.50
2023-01-29T08:54:27.465Z,47.60
2023-01-29T08:55:27.786Z,51.00
2023-01-29T08:56:27.620Z,49.40
2023-01-29T08:57:28.216Z,48.80
2023-01-29T08:58:28.217Z,49.80
2023-01-29T08:59:27.470Z,46.20
2023-01-29T09:00:28.236Z,48.20
2023-01-29T09:01:27.693Z,50.40
2023-01-29T09:02:27.451Z,45.10
2023-01-29T09:03:28.936Z,49.40
2023-01-29T09:04:27.635Z,47.90
2023-01-29T09:05:28.285Z,47.90
2023-01-29T09:06:27.516Z,47.30
2023-01-29T09:07:27.735Z,51.20
2023-01-29T09:08:27.335Z,47.40
2023-01-29T09:09:27.361Z,48.70
2023-01-29T09:10:27.716Z,47.90
2023-01-29T09:11:27.654Z,51.50
2023-01-29T09:12:27.356Z,48.20
2023-01-29T09:13:27.311Z,51.10
2023-01-29T09:14:27.311Z,47.70
2023-01-29T09:15:27.316Z,49.00
2023-01-29T09:16:27.337Z,49.70
2023-01-29T09:17:27.320Z,48.50
2023-01-29T09:18:27.329Z,47.00
2023-01-29T09:19:27.329Z,47.50
2023-01-29T09:20:27.330Z,44.70
2023-01-29T09:21:27.431Z,46.90
2023-01-29T09:22:27.433Z,46.50
2023-01-29T09:23:27.434Z,46.90
2023-01-29T09:24:27.441Z,48.80
2023-01-29T09:25:27.453Z,48.00
2023-01-29T09:26:27.535Z,45.10
2023-01-29T09:27:27.457Z,49.80
2023-01-29T09:28:27.457Z,50.40
2023-01-29T09:29:27.216Z,47.70
2023-01-29T09:30:27.477Z,50.40
2023-01-29T09:31:27.610Z,47.70
2023-01-29T09:32:52.032Z,50.20
2023-01-29T09:33:27.503Z,51.90
2023-01-29T09:34:27.635Z,45.60
2023-01-29T09:35:27.666Z,48.50
2023-01-29T09:36:27.443Z,44.00
2023-01-29T09:37:27.245Z,46.50
2023-01-29T09:38:27.265Z,48.00
2023-01-29T09:39:27.665Z,46.00
2023-01-29T09:40:27.718Z,44.60
2023-01-29T09:41:27.686Z,47.30
2023-01-29T09:42:27.144Z,50.70
2023-01-29T09:43:27.695Z,50.90
2023-01-29T09:44:27.110Z,50.90
2023-01-29T09:45:27.136Z,47.00
2023-01-29T09:46:27.110Z,49.30
2023-01-29T09:47:27.129Z,50.50
2023-01-29T09:48:27.723Z,50.00
2023-01-29T09:49:27.207Z,47.20
2023-01-29T09:50:27.754Z,52.30
2023-01-29T09:51:27.419Z,47.30
2023-01-29T09:52:27.081Z,48.00
2023-01-29T09:53:27.064Z,45.70
2023-01-29T09:54:27.048Z,49.10
2023-01-29T09:55:27.169Z,49.40
2023-01-29T09:56:27.158Z,47.70
2023-01-29T09:57:27.182Z,50.80
2023-01-29T09:58:27.181Z,45.90
2023-01-29T09:59:27.188Z,50.60
2023-01-29T10:00:27.198Z,49.00
2023-01-29T10:01:27.297Z,46.70
2023-01-29T10:02:27.257Z,48.60
2023-01-29T10:03:27.030Z,45.00
2023-01-29T10:04:27.043Z,47.60
2023-01-29T10:05:27.227Z,49.10
2023-01-29T10:06:27.027Z,47.80
2023-01-29T10:07:27.046Z,51.10
2023-01-29T10:08:26.981Z,48.80
2023-01-29T10:09:27.271Z,46.40
2023-01-29T10:10:27.268Z,47.30
2023-01-29T10:11:26.972Z,48.80
2023-01-29T10:12:26.938Z,47.70
2023-01-29T10:13:26.984Z,47.60
2023-01-29T10:14:27.377Z,44.00
2023-01-29T10:15:27.395Z,47.30
2023-01-29T10:16:27.407Z,48.10
2023-01-29T10:17:26.904Z,48.10
2023-01-29T10:18:27.419Z,44.30
2023-01-29T10:19:26.914Z,44.00
2023-01-29T10:20:26.878Z,45.00
2023-01-29T10:21:27.109Z,45.70
2023-01-29T10:22:26.941Z,46.20
2023-01-29T10:23:27.460Z,45.10
2023-01-29T10:24:27.509Z,50.00
2023-01-29T10:25:27.264Z,45.10
2023-01-29T10:26:27.145Z,42.90
2023-01-29T10:27:27.480Z,43.30
2023-01-29T10:28:27.484Z,47.80
2023-01-29T10:29:26.895Z,46.20
2023-01-29T10:30:26.882Z,46.20
2023-01-29T10:31:26.889Z,48.50
2023-01-29T10:32:26.829Z,48.80
2023-01-29T10:33:26.899Z,48.30
2023-01-29T10:34:27.027Z,48.50
2023-01-29T10:35:27.020Z,47.80
2023-01-29T10:36:27.026Z,44.40
2023-01-29T10:37:27.131Z,44.50
2023-01-29T10:38:27.137Z,50.10
2023-01-29T10:39:27.259Z,44.40
2023-01-29T10:40:27.174Z,42.70
2023-01-29T10:41:26.947Z,47.80
2023-01-29T10:42:27.278Z,44.90
2023-01-29T10:43:27.380Z,43.20
2023-01-29T10:44:27.376Z,44.30
2023-01-29T10:45:27.508Z,44.30
2023-01-29T10:46:26.776Z,44.30
2023-01-29T10:47:29.272Z,44.80
2023-01-29T10:48:27.007Z,45.20
2023-01-29T10:49:27.214Z,44.30
2023-01-29T10:50:26.718Z,42.10
2023-01-29T10:51:26.985Z,41.80
2023-01-29T10:52:27.233Z,38.10
2023-01-29T10:53:26.947Z,44.20
2023-01-29T10:54:27.453Z,40.40
2023-01-29T10:55:26.742Z,43.80
2023-01-29T10:56:26.703Z,41.20
2023-01-29T10:57:26.671Z,42.90
2023-01-29T10:58:26.674Z,41.70
2023-01-29T10:59:26.632Z,43.50
2023-01-29T11:00:26.674Z,39.80
2023-01-29T11:01:26.890Z,39.80
2023-01-29T11:02:26.654Z,39.70
2023-01-29T11:03:29.097Z,42.60
2023-01-29T11:04:27.309Z,43.50
2023-01-29T11:05:27.014Z,45.80
2023-01-29T11:06:27.129Z,41.70
2023-01-29T11:07:26.610Z,45.10
2023-01-29T11:08:26.629Z,45.00
2023-01-29T11:09:26.642Z,43.80
2023-01-29T11:10:26.633Z,44.50
2023-01-29T11:11:26.748Z,43.60
2023-01-29T11:12:26.809Z,39.80
2023-01-29T11:13:26.767Z,45.10
2023-01-29T11:14:26.775Z,45.30
2023-01-29T11:15:26.793Z,41.90
2023-01-29T11:16:26.878Z,43.40
2023-01-29T11:17:26.599Z,43.30
2023-01-29T11:18:26.797Z,47.90
2023-01-29T11:19:27.016Z,45.40
2023-01-29T11:20:26.534Z,43.30
2023-01-29T11:21:26.920Z,47.30
2023-01-29T11:22:27.134Z,45.10
2023-01-29T11:23:26.642Z,44.70
2023-01-29T11:24:26.637Z,43.40
2023-01-29T11:25:26.939Z,43.10
2023-01-29T11:26:26.488Z,43.10
2023-01-29T11:27:26.524Z,43.80
2023-01-29T11:28:26.453Z,42.10
2023-01-29T11:29:26.675Z,42.10
2023-01-29T11:30:26.476Z,45.30
2023-01-29T11:31:27.338Z,46.20
2023-01-29T11:32:26.909Z,41.10
2023-01-29T11:33:27.192Z,40.50
2023-01-29T11:34:26.422Z,37.60
2023-01-29T11:35:27.225Z,39.80
2023-01-29T11:36:28.419Z,44.20
2023-01-29T11:37:27.014Z,43.70
2023-01-29T11:38:27.288Z,45.70
2023-01-29T11:39:26.955Z,41.90
2023-01-29T11:40:26.419Z,39.20
2023-01-29T11:41:26.631Z,42.60
2023-01-29T11:42:26.369Z,40.30
2023-01-29T11:43:26.359Z,41.60
2023-01-29T11:44:27.200Z,41.30
2023-01-29T11:45:26.381Z,40.70
2023-01-29T11:46:26.351Z,42.90
2023-01-29T11:47:26.390Z,42.60
2023-01-29T11:48:26.469Z,49.40
2023-01-29T11:49:26.398Z,47.30
2023-01-29T11:50:26.612Z,44.10
2023-01-29T11:51:26.495Z,42.30
2023-01-29T11:52:26.626Z,42.90
2023-01-29T11:53:26.714Z,41.80
2023-01-29T11:54:26.636Z,41.60
2023-01-29T11:55:26.318Z,42.30
2023-01-29T11:56:26.646Z,45.20
2023-01-29T11:57:26.866Z,45.90
2023-01-29T11:58:26.956Z,47.10
2023-01-29T11:59:26.345Z,46.60
2023-01-29T12:00:26.275Z,45.60
2023-01-29T12:01:26.275Z,47.50
2023-01-29T12:02:26.284Z,45.80
2023-01-29T12:03:26.320Z,50.70
2023-01-29T12:04:26.310Z,45.40
2023-01-29T12:05:26.314Z,45.70
2023-01-29T12:06:26.323Z,45.40
2023-01-29T12:07:26.943Z,49.00
2023-01-29T12:08:26.201Z,43.40
2023-01-29T12:09:26.225Z,42.70
2023-01-29T12:10:26.221Z,41.20
2023-01-29T12:11:26.223Z,41.40
2023-01-29T12:12:26.175Z,42.60
2023-01-29T12:13:26.177Z,39.20
2023-01-29T12:14:26.173Z,40.30
2023-01-29T12:15:26.272Z,42.50
2023-01-29T12:16:26.213Z,40.50
2023-01-29T12:17:26.307Z,45.50
2023-01-29T12:18:26.309Z,44.10
2023-01-29T12:19:26.323Z,42.40
2023-01-29T12:20:26.341Z,41.40
2023-01-29T12:21:26.360Z,41.40
2023-01-29T12:22:26.109Z,40.90
2023-01-29T12:23:26.110Z,44.90
2023-01-29T12:24:26.123Z,44.50
2023-01-29T12:25:26.241Z,43.30
2023-01-29T12:26:26.264Z,42.30
2023-01-29T12:27:26.275Z,42.10
2023-01-29T12:28:26.332Z,43.60
2023-01-29T12:29:26.059Z,44.50
2023-01-29T12:30:26.554Z,44.40
2023-01-29T12:31:26.224Z,43.10
2023-01-29T12:32:26.511Z,42.00
2023-01-29T12:33:26.498Z,45.00
2023-01-29T12:34:26.505Z,40.10
2023-01-29T12:35:26.530Z,42.50
2023-01-29T12:36:26.542Z,40.30
2023-01-29T12:37:26.017Z,41.10
2023-01-29T12:38:26.004Z,42.80
2023-01-29T12:39:25.995Z,42.60
2023-01-29T12:40:26.144Z,43.60
2023-01-29T12:41:26.030Z,42.50
2023-01-29T12:42:26.055Z,39.70
2023-01-29T12:43:26.030Z,39.70
2023-01-29T12:44:26.033Z,40.70
2023-01-29T12:45:26.041Z,43.50
2023-01-29T12:46:26.084Z,43.40
2023-01-29T12:47:26.066Z,43.00
2023-01-29T12:48:25.995Z,44.10
2023-01-29T12:49:25.992Z,38.70
2023-01-29T12:50:26.013Z,40.20
2023-01-29T12:51:26.212Z,41.10
2023-01-29T12:52:25.901Z,38.80